sensor_id;sensor_type;location;lat;lon;timestamp;noise_LAeq;noise_LA_min;noise_LA_max;noise_LA01;noise_LA95
45478;Laerm;31227;47.986;11.868;2022-09-25T00:00:19;37.97;32.35;45.48;;
45478;Laerm;31227;47.986;11.868;2022-09-25T00:02:44;37.87;32.93;46.71;;
45478;Laerm;31227;47.986;11.868;2022-09-25T00:05:09;39.15;33.44;69.32;;
45478;Laerm;31227;47.986;11.868;2022-09-25T00:07:35;37.97;32.35;57.12;;
45478;Laerm;31227;47.986;11.868;2022-09-25T00:10:00;37.76;32.35;40.43;;
45478;Laerm;31227;47.986;11.868;2022-09-25T00:12:25;37.83;32.35;52.62;;
45478;Laerm;31227;47.986;11.868;2022-09-25T00:14:51;37.94;32.93;43.19;;
45478;Laerm;31227;47.986;11.868;2022-09-25T00:17:16;38.01;33.44;41.61;;
45478;Laerm;31227;47.986;11.868;2022-09-25T00:19:41;37.92;30.89;40.80;;
45478;Laerm;31227;47.986;11.868;2022-09-25T00:22:16;37.91;31.68;42.30;;
45478;Laerm;31227;47.986;11.868;2022-09-25T00:24:42;37.74;33.44;41.46;;
45478;Laerm;31227;47.986;11.868;2022-09-25T00:27:07;37.81;32.93;43.54;;
45478;Laerm;31227;47.986;11.868;2022-09-25T00:29:33;51.77;33.44;87.78;;
45478;Laerm;31227;47.986;11.868;2022-09-25T00:31:58;37.82;33.44;42.03;;
45478;Laerm;31227;47.986;11.868;2022-09-25T00:34:23;37.88;32.35;49.34;;
45478;Laerm;31227;47.986;11.868;2022-09-25T00:36:48;37.70;31.68;40.80;;
45478;Laerm;31227;47.986;11.868;2022-09-25T00:39:13;38.51;32.93;65.80;;
45478;Laerm;31227;47.986;11.868;2022-09-25T00:41:39;37.76;33.44;40.53;;
45478;Laerm;31227;47.986;11.868;2022-09-25T00:44:39;38.24;32.93;63.49;;
45478;Laerm;31227;47.986;11.868;2022-09-25T00:46:49;38.32;31.68;65.05;;
45478;Laerm;31227;47.986;11.868;2022-09-25T00:49:15;37.82;32.93;41.22;;
45478;Laerm;31227;47.986;11.868;2022-09-25T00:51:52;37.81;32.35;41.68;;
45478;Laerm;31227;47.986;11.868;2022-09-25T00:54:21;37.80;32.35;41.38;;
45478;Laerm;31227;47.986;11.868;2022-09-25T00:56:49;37.77;32.35;40.43;;
45478;Laerm;31227;47.986;11.868;2022-09-25T00:59:17;37.82;30.89;50.71;;
45478;Laerm;31227;47.986;11.868;2022-09-25T01:01:44;37.82;30.89;43.24;;
45478;Laerm;31227;47.986;11.868;2022-09-25T01:04:09;37.73;32.35;41.22;;
45478;Laerm;31227;47.986;11.868;2022-09-25T01:06:36;37.75;32.93;42.47;;
45478;Laerm;31227;47.986;11.868;2022-09-25T01:09:02;37.64;31.68;40.43;;
45478;Laerm;31227;47.986;11.868;2022-09-25T01:11:27;37.74;32.35;41.53;;
45478;Laerm;31227;47.986;11.868;2022-09-25T01:13:55;37.60;31.68;40.43;;
45478;Laerm;31227;47.986;11.868;2022-09-25T01:21:23;37.69;32.93;40.62;;
45478;Laerm;31227;47.986;11.868;2022-09-25T01:31:31;37.53;32.00;40.62;;
45478;Laerm;31227;47.986;11.868;2022-09-25T01:34:12;37.56;32.35;43.54;;
45478;Laerm;31227;47.986;11.868;2022-09-25T01:36:40;37.56;31.68;40.62;;
45478;Laerm;31227;47.986;11.868;2022-09-25T01:39:08;37.50;32.35;40.89;;
45478;Laerm;31227;47.986;11.868;2022-09-25T01:41:53;37.57;32.93;40.71;;
45478;Laerm;31227;47.986;11.868;2022-09-25T01:44:35;37.49;30.89;40.63;;
45478;Laerm;31227;47.986;11.868;2022-09-25T01:47:03;37.49;31.68;44.15;;
45478;Laerm;31227;47.986;11.868;2022-09-25T01:49:52;37.56;30.89;41.30;;
45478;Laerm;31227;47.986;11.868;2022-09-25T01:52:16;37.63;31.68;42.03;;
45478;Laerm;31227;47.986;11.868;2022-09-25T01:54:44;37.49;32.35;40.43;;
45478;Laerm;31227;47.986;11.868;2022-09-25T01:57:18;37.65;32.35;58.56;;
45478;Laerm;31227;47.986;11.868;2022-09-25T02:02:12;38.14;32.93;40.89;;
45478;Laerm;31227;47.986;11.868;2022-09-25T02:04:44;38.22;33.44;41.06;;
45478;Laerm;31227;47.986;11.868;2022-09-25T02:07:12;38.29;34.31;41.22;;
45478;Laerm;31227;47.986;11.868;2022-09-25T02:09:40;38.06;33.90;41.06;;
45478;Laerm;31227;47.986;11.868;2022-09-25T02:12:26;38.08;32.35;40.80;;
45478;Laerm;31227;47.986;11.868;2022-09-25T02:15:06;38.27;33.44;41.22;;
45478;Laerm;31227;47.986;11.868;2022-09-25T02:17:39;38.26;32.93;41.22;;
45478;Laerm;31227;47.986;11.868;2022-09-25T02:20:24;38.62;32.35;51.95;;
45478;Laerm;31227;47.986;11.868;2022-09-25T02:25:31;38.84;33.90;41.68;;
45478;Laerm;31227;47.986;11.868;2022-09-25T02:28:00;38.28;33.44;41.68;;
45478;Laerm;31227;47.986;11.868;2022-09-25T02:30:25;38.33;32.35;43.04;;
45478;Laerm;31227;47.986;11.868;2022-09-25T02:32:51;38.53;33.90;41.30;;
45478;Laerm;31227;47.986;11.868;2022-09-25T02:35:16;38.42;33.90;41.30;;
45478;Laerm;31227;47.986;11.868;2022-09-25T02:37:42;38.42;34.31;52.36;;
45478;Laerm;31227;47.986;11.868;2022-09-25T02:40:07;38.46;31.68;51.30;;
45478;Laerm;31227;47.986;11.868;2022-09-25T03:00:37;38.79;34.31;41.30;;
45478;Laerm;31227;47.986;11.868;2022-09-25T03:03:04;37.91;32.35;41.14;;
45478;Laerm;31227;47.986;11.868;2022-09-25T03:05:32;37.62;31.68;49.33;;
45478;Laerm;31227;47.986;11.868;2022-09-25T03:07:57;37.65;31.68;41.82;;
45478;Laerm;31227;47.986;11.868;2022-09-25T03:10:41;37.62;32.35;40.53;;
45478;Laerm;31227;47.986;11.868;2022-09-25T03:15:38;37.58;32.35;40.33;;
45478;Laerm;31227;47.986;11.868;2022-09-25T03:18:04;37.67;32.35;42.98;;
45478;Laerm;31227;47.986;11.868;2022-09-25T03:20:30;37.74;30.89;40.98;;
45478;Laerm;31227;47.986;11.868;2022-09-25T03:22:55;37.79;32.93;42.16;;
45478;Laerm;31227;47.986;11.868;2022-09-25T03:25:20;37.70;32.93;40.62;;
45478;Laerm;31227;47.986;11.868;2022-09-25T03:27:46;37.68;32.58;40.23;;
45478;Laerm;31227;47.986;11.868;2022-09-25T03:30:11;37.73;32.35;41.30;;
45478;Laerm;31227;47.986;11.868;2022-09-25T03:32:36;37.73;30.89;42.09;;
45478;Laerm;31227;47.986;11.868;2022-09-25T03:35:03;37.62;28.67;40.33;;
45478;Laerm;31227;47.986;11.868;2022-09-25T03:37:28;37.69;32.35;40.71;;
45478;Laerm;31227;47.986;11.868;2022-09-25T03:39:53;37.60;32.93;40.43;;
45478;Laerm;31227;47.986;11.868;2022-09-25T03:42:19;37.58;32.35;40.33;;
45478;Laerm;31227;47.986;11.868;2022-09-25T03:44:44;37.58;32.93;40.23;;
45478;Laerm;31227;47.986;11.868;2022-09-25T03:47:09;37.56;31.68;40.33;;
45478;Laerm;31227;47.986;11.868;2022-09-25T03:49:34;37.60;31.68;40.23;;
45478;Laerm;31227;47.986;11.868;2022-09-25T03:51:59;37.72;32.35;40.63;;
45478;Laerm;31227;47.986;11.868;2022-09-25T03:54:25;37.66;32.35;40.62;;
45478;Laerm;31227;47.986;11.868;2022-09-25T03:56:50;37.67;32.35;40.53;;
45478;Laerm;31227;47.986;11.868;2022-09-25T03:59:15;37.80;32.93;41.30;;
45478;Laerm;31227;47.986;11.868;2022-09-25T04:01:40;37.80;31.68;44.90;;
45478;Laerm;31227;47.986;11.868;2022-09-25T04:04:06;37.74;31.68;40.89;;
45478;Laerm;31227;47.986;11.868;2022-09-25T04:06:31;37.78;32.35;40.62;;
45478;Laerm;31227;47.986;11.868;2022-09-25T04:08:56;37.80;32.93;41.89;;
45478;Laerm;31227;47.986;11.868;2022-09-25T04:11:22;37.69;32.93;40.43;;
45478;Laerm;31227;47.986;11.868;2022-09-25T04:13:48;37.80;31.68;41.22;;
45478;Laerm;31227;47.986;11.868;2022-09-25T04:16:13;37.74;31.68;42.03;;
45478;Laerm;31227;47.986;11.868;2022-09-25T04:18:39;37.70;32.35;40.62;;
45478;Laerm;31227;47.986;11.868;2022-09-25T04:21:07;37.78;30.89;42.76;;
45478;Laerm;31227;47.986;11.868;2022-09-25T04:23:33;37.69;32.93;40.98;;
45478;Laerm;31227;47.986;11.868;2022-09-25T04:25:59;37.76;32.93;41.68;;
45478;Laerm;31227;47.986;11.868;2022-09-25T04:28:24;37.69;33.44;40.33;;
45478;Laerm;31227;47.986;11.868;2022-09-25T04:30:50;37.96;32.35;41.53;;
45478;Laerm;31227;47.986;11.868;2022-09-25T04:33:15;38.04;31.68;41.14;;
45478;Laerm;31227;47.986;11.868;2022-09-25T04:35:59;37.77;30.89;42.88;;
45478;Laerm;31227;47.986;11.868;2022-09-25T04:38:25;37.74;32.93;41.30;;
45478;Laerm;31227;47.986;11.868;2022-09-25T04:40:50;37.93;32.93;41.22;;
45478;Laerm;31227;47.986;11.868;2022-09-25T04:43:15;37.79;30.89;40.62;;
45478;Laerm;31227;47.986;11.868;2022-09-25T04:45:40;37.85;31.68;42.03;;
45478;Laerm;31227;47.986;11.868;2022-09-25T04:48:06;37.83;32.35;41.30;;
45478;Laerm;31227;47.986;11.868;2022-09-25T04:50:31;37.76;32.93;40.71;;
45478;Laerm;31227;47.986;11.868;2022-09-25T04:52:57;37.77;32.35;40.54;;
45478;Laerm;31227;47.986;11.868;2022-09-25T04:55:23;37.74;32.35;41.22;;
45478;Laerm;31227;47.986;11.868;2022-09-25T04:57:49;37.69;32.35;41.38;;
45478;Laerm;31227;47.986;11.868;2022-09-25T05:00:14;37.69;32.35;40.80;;
45478;Laerm;31227;47.986;11.868;2022-09-25T05:02:42;37.71;33.44;41.30;;
45478;Laerm;31227;47.986;11.868;2022-09-25T05:05:07;37.86;32.35;42.35;;
45478;Laerm;31227;47.986;11.868;2022-09-25T05:07:33;37.69;32.93;40.80;;
45478;Laerm;31227;47.986;11.868;2022-09-25T05:09:59;37.71;32.35;40.89;;
45478;Laerm;31227;47.986;11.868;2022-09-25T05:12:24;37.96;32.93;42.65;;
45478;Laerm;31227;47.986;11.868;2022-09-25T05:14:49;37.83;32.93;42.53;;
45478;Laerm;31227;47.986;11.868;2022-09-25T05:17:15;38.16;32.93;43.90;;
45478;Laerm;31227;47.986;11.868;2022-09-25T05:19:40;37.73;31.68;41.14;;
45478;Laerm;31227;47.986;11.868;2022-09-25T05:22:05;37.87;32.93;42.47;;
45478;Laerm;31227;47.986;11.868;2022-09-25T05:24:30;37.77;32.35;40.53;;
45478;Laerm;31227;47.986;11.868;2022-09-25T05:26:56;37.65;31.68;40.53;;
45478;Laerm;31227;47.986;11.868;2022-09-25T05:29:21;37.78;32.93;41.96;;
45478;Laerm;31227;47.986;11.868;2022-09-25T05:31:47;37.86;32.93;51.70;;
45478;Laerm;31227;47.986;11.868;2022-09-25T05:34:13;37.86;30.89;43.24;;
45478;Laerm;31227;47.986;11.868;2022-09-25T05:36:39;37.88;32.35;41.30;;
45478;Laerm;31227;47.986;11.868;2022-09-25T05:39:04;37.82;32.35;41.82;;
45478;Laerm;31227;47.986;11.868;2022-09-25T05:41:29;37.88;32.35;42.76;;
45478;Laerm;31227;47.986;11.868;2022-09-25T05:43:57;37.92;32.35;42.09;;
45478;Laerm;31227;47.986;11.868;2022-09-25T05:46:23;38.94;32.35;50.07;;
45478;Laerm;31227;47.986;11.868;2022-09-25T05:48:48;37.62;31.68;41.53;;
45478;Laerm;31227;47.986;11.868;2022-09-25T05:51:13;37.77;32.93;42.65;;
45478;Laerm;31227;47.986;11.868;2022-09-25T05:53:39;37.79;32.00;41.75;;
45478;Laerm;31227;47.986;11.868;2022-09-25T05:56:05;37.73;31.68;40.80;;
45478;Laerm;31227;47.986;11.868;2022-09-25T05:58:30;37.97;32.35;42.71;;
45478;Laerm;31227;47.986;11.868;2022-09-25T06:01:01;37.68;32.35;41.75;;
45478;Laerm;31227;47.986;11.868;2022-09-25T06:03:27;37.84;31.68;42.98;;
45478;Laerm;31227;47.986;11.868;2022-09-25T06:05:54;38.07;32.35;52.97;;
45478;Laerm;31227;47.986;11.868;2022-09-25T06:08:19;37.63;31.68;41.46;;
45478;Laerm;31227;47.986;11.868;2022-09-25T06:10:49;37.82;32.93;41.14;;
45478;Laerm;31227;47.986;11.868;2022-09-25T06:13:15;37.83;32.58;42.59;;
45478;Laerm;31227;47.986;11.868;2022-09-25T06:15:40;38.09;32.93;41.68;;
45478;Laerm;31227;47.986;11.868;2022-09-25T06:18:06;37.95;32.35;42.82;;
45478;Laerm;31227;47.986;11.868;2022-09-25T06:20:32;37.92;33.44;41.89;;
45478;Laerm;31227;47.986;11.868;2022-09-25T06:22:58;38.16;32.35;43.39;;
45478;Laerm;31227;47.986;11.868;2022-09-25T06:25:26;38.40;33.44;42.53;;
45478;Laerm;31227;47.986;11.868;2022-09-25T06:27:55;38.05;31.68;41.61;;
45478;Laerm;31227;47.986;11.868;2022-09-25T06:30:24;37.91;32.93;41.30;;
45478;Laerm;31227;47.986;11.868;2022-09-25T06:32:55;37.99;31.68;43.04;;
45478;Laerm;31227;47.986;11.868;2022-09-25T06:35:21;38.33;32.35;42.03;;
45478;Laerm;31227;47.986;11.868;2022-09-25T06:37:46;38.23;33.44;42.59;;
45478;Laerm;31227;47.986;11.868;2022-09-25T06:40:11;38.43;31.68;42.82;;
45478;Laerm;31227;47.986;11.868;2022-09-25T06:42:36;38.02;33.09;42.41;;
45478;Laerm;31227;47.986;11.868;2022-09-25T06:45:03;37.84;32.93;41.14;;
45478;Laerm;31227;47.986;11.868;2022-09-25T06:47:28;37.90;32.35;40.89;;
45478;Laerm;31227;47.986;11.868;2022-09-25T06:49:53;38.06;32.35;40.98;;
45478;Laerm;31227;47.986;11.868;2022-09-25T06:52:18;38.24;32.58;44.31;;
45478;Laerm;31227;47.986;11.868;2022-09-25T06:54:44;38.05;32.93;42.76;;
45478;Laerm;31227;47.986;11.868;2022-09-25T06:57:09;37.99;32.93;42.76;;
45478;Laerm;31227;47.986;11.868;2022-09-25T06:59:36;38.08;32.93;43.04;;
45478;Laerm;31227;47.986;11.868;2022-09-25T07:02:01;38.02;32.35;42.35;;
45478;Laerm;31227;47.986;11.868;2022-09-25T07:04:45;38.22;32.93;41.82;;
45478;Laerm;31227;47.986;11.868;2022-09-25T07:07:11;37.89;31.68;42.22;;
45478;Laerm;31227;47.986;11.868;2022-09-25T07:09:37;37.99;33.90;42.22;;
45478;Laerm;31227;47.986;11.868;2022-09-25T07:12:02;38.52;33.44;42.65;;
45478;Laerm;31227;47.986;11.868;2022-09-25T07:14:29;38.18;32.93;42.22;;
45478;Laerm;31227;47.986;11.868;2022-09-25T07:16:57;38.49;32.93;42.65;;
45478;Laerm;31227;47.986;11.868;2022-09-25T07:19:22;38.38;33.44;42.35;;
45478;Laerm;31227;47.986;11.868;2022-09-25T07:21:48;38.51;32.93;42.09;;
45478;Laerm;31227;47.986;11.868;2022-09-25T07:24:13;38.62;33.90;43.77;;
45478;Laerm;31227;47.986;11.868;2022-09-25T07:26:38;38.68;33.55;43.14;;
45478;Laerm;31227;47.986;11.868;2022-09-25T07:29:04;38.38;33.44;42.65;;
45478;Laerm;31227;47.986;11.868;2022-09-25T07:31:31;38.56;32.93;43.49;;
45478;Laerm;31227;47.986;11.868;2022-09-25T07:33:57;38.34;33.09;43.99;;
45478;Laerm;31227;47.986;11.868;2022-09-25T07:36:24;38.49;33.90;42.98;;
45478;Laerm;31227;47.986;11.868;2022-09-25T07:38:50;38.35;33.90;42.41;;
45478;Laerm;31227;47.986;11.868;2022-09-25T07:41:15;38.61;33.44;42.65;;
45478;Laerm;31227;47.986;11.868;2022-09-25T07:43:42;39.12;34.31;44.80;;
45478;Laerm;31227;47.986;11.868;2022-09-25T07:46:07;39.23;34.69;45.66;;
45478;Laerm;31227;47.986;11.868;2022-09-25T07:48:33;39.39;34.31;45.83;;
45478;Laerm;31227;47.986;11.868;2022-09-25T07:51:02;38.75;34.69;42.35;;
45478;Laerm;31227;47.986;11.868;2022-09-25T07:53:27;38.52;34.31;42.65;;
45478;Laerm;31227;47.986;11.868;2022-09-25T07:55:57;39.25;35.04;43.24;;
45478;Laerm;31227;47.986;11.868;2022-09-25T07:58:23;40.08;35.94;43.58;;
45478;Laerm;31227;47.986;11.868;2022-09-25T08:00:48;39.05;32.35;43.24;;
45478;Laerm;31227;47.986;11.868;2022-09-25T08:03:14;38.80;33.90;42.35;;
45478;Laerm;31227;47.986;11.868;2022-09-25T08:05:39;39.26;34.69;43.90;;
45478;Laerm;31227;47.986;11.868;2022-09-25T08:08:04;38.60;34.31;43.77;;
45478;Laerm;31227;47.986;11.868;2022-09-25T08:10:29;39.93;34.69;53.34;;
45478;Laerm;31227;47.986;11.868;2022-09-25T08:12:56;39.05;34.69;43.51;;
45478;Laerm;31227;47.986;11.868;2022-09-25T08:15:21;39.02;34.31;45.57;;
45478;Laerm;31227;47.986;11.868;2022-09-25T08:17:46;39.00;35.36;43.19;;
45478;Laerm;31227;47.986;11.868;2022-09-25T08:20:11;38.66;34.31;42.53;;
45478;Laerm;31227;47.986;11.868;2022-09-25T08:22:37;39.11;34.69;44.51;;
45478;Laerm;31227;47.986;11.868;2022-09-25T08:25:02;39.18;34.31;44.43;;
45478;Laerm;31227;47.986;11.868;2022-09-25T08:27:28;38.82;34.69;43.28;;
45478;Laerm;31227;47.986;11.868;2022-09-25T08:29:53;39.33;35.04;52.13;;
45478;Laerm;31227;47.986;11.868;2022-09-25T08:32:18;39.01;34.69;45.04;;
45478;Laerm;31227;47.986;11.868;2022-09-25T08:34:43;39.57;35.04;44.35;;
45478;Laerm;31227;47.986;11.868;2022-09-25T08:37:09;38.89;35.04;44.35;;
45478;Laerm;31227;47.986;11.868;2022-09-25T08:39:34;39.02;35.36;44.83;;
45478;Laerm;31227;47.986;11.868;2022-09-25T08:41:59;39.09;35.36;43.09;;
45478;Laerm;31227;47.986;11.868;2022-09-25T08:46:58;39.73;35.94;43.44;;
45478;Laerm;31227;47.986;11.868;2022-09-25T08:49:49;38.97;35.66;44.03;;
45478;Laerm;31227;47.986;11.868;2022-09-25T08:52:17;39.48;35.94;44.58;;
45478;Laerm;31227;47.986;11.868;2022-09-25T08:54:43;39.67;35.94;44.27;;
45478;Laerm;31227;47.986;11.868;2022-09-25T08:59:44;39.55;35.04;44.43;;
45478;Laerm;31227;47.986;11.868;2022-09-25T09:02:12;39.62;35.04;43.68;;
45478;Laerm;31227;47.986;11.868;2022-09-25T09:04:43;39.59;35.04;45.99;;
45478;Laerm;31227;47.986;11.868;2022-09-25T09:07:33;39.49;35.59;49.02;;
45478;Laerm;31227;47.986;11.868;2022-09-25T09:12:26;39.72;35.94;44.43;;
45478;Laerm;31227;47.986;11.868;2022-09-25T09:14:54;39.49;35.36;43.58;;
45478;Laerm;31227;47.986;11.868;2022-09-25T09:17:23;39.49;35.31;45.51;;
45478;Laerm;31227;47.986;11.868;2022-09-25T09:19:50;39.42;35.04;45.27;;
45478;Laerm;31227;47.986;11.868;2022-09-25T09:22:20;39.51;35.66;43.49;;
45478;Laerm;31227;47.986;11.868;2022-09-25T09:32:30;39.57;35.31;43.90;;
45478;Laerm;31227;47.986;11.868;2022-09-25T09:45:37;39.61;35.01;45.77;;
45478;Laerm;31227;47.986;11.868;2022-09-25T09:48:13;39.46;35.94;45.39;;
45478;Laerm;31227;47.986;11.868;2022-09-25T09:53:16;39.31;35.36;44.19;;
45478;Laerm;31227;47.986;11.868;2022-09-25T09:55:46;39.38;35.36;45.97;;
45478;Laerm;31227;47.986;11.868;2022-09-25T09:58:32;40.03;35.66;45.72;;
45478;Laerm;31227;47.986;11.868;2022-09-25T10:01:00;39.56;35.66;44.31;;
45478;Laerm;31227;47.986;11.868;2022-09-25T10:03:28;40.69;35.94;46.18;;
45478;Laerm;31227;47.986;11.868;2022-09-25T10:05:55;39.71;35.36;47.72;;
45478;Laerm;31227;47.986;11.868;2022-09-25T10:08:21;40.66;35.94;45.83;;
45478;Laerm;31227;47.986;11.868;2022-09-25T10:10:49;39.84;35.66;44.94;;
45478;Laerm;31227;47.986;11.868;2022-09-25T10:18:08;40.99;36.45;47.90;;
45478;Laerm;31227;47.986;11.868;2022-09-25T10:23:36;39.54;35.94;45.54;;
45478;Laerm;31227;47.986;11.868;2022-09-25T10:26:04;39.68;35.36;44.76;;
45478;Laerm;31227;47.986;11.868;2022-09-25T10:28:46;39.96;35.66;45.39;;
45478;Laerm;31227;47.986;11.868;2022-09-25T10:31:11;39.60;35.66;45.04;;
45478;Laerm;31227;47.986;11.868;2022-09-25T10:33:36;40.12;35.66;46.43;;
45478;Laerm;31227;47.986;11.868;2022-09-25T10:36:02;39.48;35.36;45.77;;
45478;Laerm;31227;47.986;11.868;2022-09-25T10:38:36;40.19;35.66;45.48;;
45478;Laerm;31227;47.986;11.868;2022-09-25T10:43:31;39.70;35.04;45.63;;
45478;Laerm;31227;47.986;11.868;2022-09-25T10:46:03;40.14;35.36;55.33;;
45478;Laerm;31227;47.986;11.868;2022-09-25T10:48:30;40.13;35.66;47.77;;
45478;Laerm;31227;47.986;11.868;2022-09-25T10:51:14;39.70;35.36;44.80;;
45478;Laerm;31227;47.986;11.868;2022-09-25T10:53:42;39.24;34.69;47.14;;
45478;Laerm;31227;47.986;11.868;2022-09-25T10:56:13;39.86;35.36;44.58;;
45478;Laerm;31227;47.986;11.868;2022-09-25T11:01:10;39.91;35.31;47.91;;
45478;Laerm;31227;47.986;11.868;2022-09-25T11:03:39;41.58;37.32;55.36;;
45478;Laerm;31227;47.986;11.868;2022-09-25T11:06:14;44.35;37.70;53.18;;
45478;Laerm;31227;47.986;11.868;2022-09-25T11:08:45;41.10;35.36;49.97;;
45478;Laerm;31227;47.986;11.868;2022-09-25T11:11:10;42.05;36.45;48.78;;
45478;Laerm;31227;47.986;11.868;2022-09-25T11:13:48;41.24;36.69;47.46;;
45478;Laerm;31227;47.986;11.868;2022-09-25T11:16:14;41.57;36.69;50.70;;
45478;Laerm;31227;47.986;11.868;2022-09-25T11:19:04;41.87;35.66;49.00;;
45478;Laerm;31227;47.986;11.868;2022-09-25T11:21:35;40.98;35.94;47.34;;
45478;Laerm;31227;47.986;11.868;2022-09-25T11:24:05;41.36;35.04;49.29;;
45478;Laerm;31227;47.986;11.868;2022-09-25T11:26:36;60.63;35.36;96.88;;
45478;Laerm;31227;47.986;11.868;2022-09-25T11:29:08;41.73;36.69;47.48;;
45478;Laerm;31227;47.986;11.868;2022-09-25T11:31:36;39.99;35.66;47.18;;
45478;Laerm;31227;47.986;11.868;2022-09-25T11:34:09;40.48;35.66;48.15;;
45478;Laerm;31227;47.986;11.868;2022-09-25T11:39:44;40.70;35.36;46.57;;
45478;Laerm;31227;47.986;11.868;2022-09-25T11:42:35;41.28;35.94;48.85;;
45478;Laerm;31227;47.986;11.868;2022-09-25T11:45:11;40.92;35.36;55.95;;
45478;Laerm;31227;47.986;11.868;2022-09-25T11:47:40;41.45;36.20;47.06;;
45478;Laerm;31227;47.986;11.868;2022-09-25T11:50:14;40.71;36.20;46.02;;
45478;Laerm;31227;47.986;11.868;2022-09-25T11:55:14;40.45;35.36;44.97;;
45478;Laerm;31227;47.986;11.868;2022-09-25T12:10:31;40.59;36.20;45.11;;
45478;Laerm;31227;47.986;11.868;2022-09-25T12:20:55;41.10;36.20;46.82;;
45478;Laerm;31227;47.986;11.868;2022-09-25T12:23:47;40.61;35.04;46.28;;
45478;Laerm;31227;47.986;11.868;2022-09-25T12:29:05;40.46;35.66;55.82;;
45478;Laerm;31227;47.986;11.868;2022-09-25T12:31:51;40.53;36.45;47.04;;
45478;Laerm;31227;47.986;11.868;2022-09-25T12:37:06;39.97;35.36;45.01;;
45478;Laerm;31227;47.986;11.868;2022-09-25T12:40:19;40.63;35.04;47.76;;
45478;Laerm;31227;47.986;11.868;2022-09-25T12:42:18;40.28;35.66;48.77;;
45478;Laerm;31227;47.986;11.868;2022-09-25T12:44:51;40.49;36.20;45.83;;
45478;Laerm;31227;47.986;11.868;2022-09-25T12:47:21;41.31;35.04;48.18;;
45478;Laerm;31227;47.986;11.868;2022-09-25T12:49:54;40.33;35.66;45.77;;
45478;Laerm;31227;47.986;11.868;2022-09-25T12:55:01;40.36;36.20;45.63;;
45478;Laerm;31227;47.986;11.868;2022-09-25T12:57:33;40.07;35.94;45.07;;
45478;Laerm;31227;47.986;11.868;2022-09-25T13:00:20;41.37;35.94;49.97;;
45478;Laerm;31227;47.986;11.868;2022-09-25T13:05:33;40.78;34.69;49.34;;
45478;Laerm;31227;47.986;11.868;2022-09-25T13:08:11;40.35;35.04;46.40;;
45478;Laerm;31227;47.986;11.868;2022-09-25T13:10:50;40.56;35.36;45.86;;
45478;Laerm;31227;47.986;11.868;2022-09-25T13:13:20;41.20;35.04;53.00;;
45478;Laerm;31227;47.986;11.868;2022-09-25T13:15:49;39.73;35.04;44.39;;
45478;Laerm;31227;47.986;11.868;2022-09-25T13:18:17;40.01;35.66;44.58;;
45478;Laerm;31227;47.986;11.868;2022-09-25T13:20:47;39.62;35.66;46.40;;
45478;Laerm;31227;47.986;11.868;2022-09-25T13:23:15;40.53;35.36;56.48;;
45478;Laerm;31227;47.986;11.868;2022-09-25T13:25:47;40.61;35.59;52.97;;
45478;Laerm;31227;47.986;11.868;2022-09-25T13:28:21;39.97;35.66;46.38;;
45478;Laerm;31227;47.986;11.868;2022-09-25T13:31:04;40.38;35.04;47.32;;
45478;Laerm;31227;47.986;11.868;2022-09-25T13:33:36;39.30;33.90;44.51;;
45478;Laerm;31227;47.986;11.868;2022-09-25T13:36:09;39.90;35.36;44.19;;
45478;Laerm;31227;47.986;11.868;2022-09-25T13:38:38;40.15;34.69;45.36;;
45478;Laerm;31227;47.986;11.868;2022-09-25T13:41:23;40.53;35.36;47.95;;
45478;Laerm;31227;47.986;11.868;2022-09-25T13:43:48;40.07;35.04;47.22;;
45478;Laerm;31227;47.986;11.868;2022-09-25T13:46:33;40.32;35.66;45.30;;
45478;Laerm;31227;47.986;11.868;2022-09-25T13:51:44;41.63;35.66;50.11;;
45478;Laerm;31227;47.986;11.868;2022-09-25T14:01:38;41.15;35.94;48.55;;
45478;Laerm;31227;47.986;11.868;2022-09-25T14:06:34;43.18;35.94;51.22;;
45478;Laerm;31227;47.986;11.868;2022-09-25T14:09:04;42.51;35.36;50.71;;
45478;Laerm;31227;47.986;11.868;2022-09-25T14:11:32;40.40;34.69;50.06;;
45478;Laerm;31227;47.986;11.868;2022-09-25T14:13:59;42.76;36.91;49.94;;
45478;Laerm;31227;47.986;11.868;2022-09-25T14:18:57;41.51;35.36;58.03;;
45478;Laerm;31227;47.986;11.868;2022-09-25T14:21:23;42.48;35.66;52.31;;
45478;Laerm;31227;47.986;11.868;2022-09-25T14:24:15;40.80;35.66;47.86;;
45478;Laerm;31227;47.986;11.868;2022-09-25T14:26:36;41.31;35.66;48.84;;
45478;Laerm;31227;47.986;11.868;2022-09-25T14:29:13;41.21;35.36;48.16;;
45478;Laerm;31227;47.986;11.868;2022-09-25T14:31:47;40.62;34.69;46.93;;
45478;Laerm;31227;47.986;11.868;2022-09-25T14:44:24;40.78;35.36;48.26;;
45478;Laerm;31227;47.986;11.868;2022-09-25T14:46:53;40.98;35.66;47.88;;
45478;Laerm;31227;47.986;11.868;2022-09-25T14:49:27;40.53;34.31;49.12;;
45478;Laerm;31227;47.986;11.868;2022-09-25T14:51:54;41.11;35.36;58.78;;
45478;Laerm;31227;47.986;11.868;2022-09-25T14:54:21;40.95;35.66;50.11;;
45478;Laerm;31227;47.986;11.868;2022-09-25T14:56:48;40.79;33.90;53.05;;
45478;Laerm;31227;47.986;11.868;2022-09-25T15:00:00;53.79;36.20;89.77;;
45478;Laerm;31227;47.986;11.868;2022-09-25T15:02:01;46.95;32.93;82.38;;
45478;Laerm;31227;47.986;11.868;2022-09-25T15:04:28;40.79;35.04;48.36;;
45478;Laerm;31227;47.986;11.868;2022-09-25T15:07:17;40.88;35.04;49.75;;
45478;Laerm;31227;47.986;11.868;2022-09-25T15:09:43;41.40;36.20;47.04;;
45478;Laerm;31227;47.986;11.868;2022-09-25T15:12:25;40.24;34.69;46.91;;
45478;Laerm;31227;47.986;11.868;2022-09-25T15:17:22;40.69;35.66;46.38;;
45478;Laerm;31227;47.986;11.868;2022-09-25T15:19:47;41.27;36.45;47.12;;
45478;Laerm;31227;47.986;11.868;2022-09-25T15:22:17;41.11;36.20;47.36;;
45478;Laerm;31227;47.986;11.868;2022-09-25T15:24:50;41.15;36.45;46.15;;
45478;Laerm;31227;47.986;11.868;2022-09-25T15:27:18;42.22;37.88;48.18;;
45478;Laerm;31227;47.986;11.868;2022-09-25T15:29:44;40.64;35.36;47.30;;
45478;Laerm;31227;47.986;11.868;2022-09-25T15:32:15;48.99;36.20;84.52;;
45478;Laerm;31227;47.986;11.868;2022-09-25T15:34:41;40.47;36.20;46.97;;
45478;Laerm;31227;47.986;11.868;2022-09-25T15:37:15;40.35;35.04;44.62;;
45478;Laerm;31227;47.986;11.868;2022-09-25T15:39:42;40.63;35.94;45.94;;
45478;Laerm;31227;47.986;11.868;2022-09-25T15:42:10;40.54;35.36;47.10;;
45478;Laerm;31227;47.986;11.868;2022-09-25T15:44:36;40.89;35.94;47.02;;
45478;Laerm;31227;47.986;11.868;2022-09-25T15:47:01;41.47;36.45;47.00;;
45478;Laerm;31227;47.986;11.868;2022-09-25T15:52:05;40.80;35.66;46.20;;
45478;Laerm;31227;47.986;11.868;2022-09-25T15:54:42;40.57;36.20;45.97;;
45478;Laerm;31227;47.986;11.868;2022-09-25T15:57:09;40.47;35.66;44.76;;
45478;Laerm;31227;47.986;11.868;2022-09-25T15:59:38;39.94;34.31;46.87;;
45478;Laerm;31227;47.986;11.868;2022-09-25T16:02:24;40.40;35.36;48.05;;
45478;Laerm;31227;47.986;11.868;2022-09-25T16:05:29;40.07;35.36;44.76;;
45478;Laerm;31227;47.986;11.868;2022-09-25T16:08:42;40.63;36.45;46.07;;